Terminal Aerodrome Forecast
Issued by NWS Twin Cities, MN

Home | Current Version | Previous Version | Text Only | Print | Product List | Glossary Off
Versions: 1 2 3 4 5 6 7 8 9 10 11 12 13 14 15 16 17 18 19 20 21

000
FTUS43 KMPX 201745
TAFEAU
TAF
KEAU 201745Z 2018/2118 27005KT P6SM SCT050 OVC150
     FM210300 25004KT P6SM SCT200
     FM211700 28010KT P6SM FEW250=

USA.gov is the U.S. government's official web portal to all federal, state and local government web resources and services.